Time;durP1;ratioP1;P1;durP2;ratioP2;P2;SDS_P1;SDS_P2;PMS_P1;PMS_P2;Temp;Humidity;BMP_temperature;BMP_pressure;BME280_temperature;BME280_humidity;BME280_pressure;Samples;Min_cycle;Max_cycle;Signal;HPM_P1;HPM_P2
2022/08/30 00:02:13;;;;;;;3.37;2.13;;;17.90;53.70;;;;;;946938;151;27436;-74
2022/08/30 00:04:40;;;;;;;2.70;2.07;;;17.80;53.70;;;;;;947519;151;27308;-74
2022/08/30 00:07:06;;;;;;;2.50;1.97;;;17.80;53.80;;;;;;948569;151;27418;-74
2022/08/30 00:09:33;;;;;;;1.93;1.63;;;17.70;54.00;;;;;;947699;151;27473;-74
2022/08/30 00:12:00;;;;;;;3.90;1.97;;;17.70;54.00;;;;;;948029;151;28116;-74
2022/08/30 00:14:26;;;;;;;3.07;2.17;;;17.70;54.20;;;;;;947703;151;27867;-74
2022/08/30 00:16:53;;;;;;;2.12;1.80;;;17.70;54.30;;;;;;946646;151;27458;-74
2022/08/30 00:19:19;;;;;;;2.60;2.20;;;17.60;54.30;;;;;;943653;149;27330;-74
2022/08/30 00:21:46;;;;;;;2.65;1.95;;;17.60;54.40;;;;;;943722;149;27364;-74
2022/08/30 00:24:12;;;;;;;2.37;1.80;;;17.50;54.60;;;;;;943255;149;27385;-74
2022/08/30 00:26:39;;;;;;;2.63;2.00;;;17.50;54.70;;;;;;943194;149;27332;-76
2022/08/30 00:29:06;;;;;;;2.87;2.33;;;17.50;54.90;;;;;;943643;149;27338;-76
2022/08/30 00:31:32;;;;;;;3.10;2.00;;;17.40;55.30;;;;;;943247;149;27321;-74
2022/08/30 00:33:59;;;;;;;2.47;1.83;;;17.40;55.20;;;;;;944285;149;27798;-74
2022/08/30 00:36:26;;;;;;;3.52;1.90;;;17.40;55.40;;;;;;943339;149;27372;-74
2022/08/30 00:38:53;;;;;;;2.30;1.70;;;17.40;55.60;;;;;;944064;149;27366;-74
2022/08/30 00:41:18;;;;;;;2.83;2.37;;;17.40;55.60;;;;;;944136;149;27320;-73
2022/08/30 00:43:45;;;;;;;2.77;2.20;;;17.40;55.70;;;;;;943108;149;27314;-74
2022/08/30 00:46:12;;;;;;;3.57;2.40;;;17.40;55.70;;;;;;943531;149;27415;-74
2022/08/30 00:48:39;;;;;;;2.22;1.92;;;17.40;55.90;;;;;;944245;149;27365;-74
2022/08/30 00:51:05;;;;;;;2.30;2.10;;;17.40;56.00;;;;;;943384;149;27348;-74
2022/08/30 00:53:31;;;;;;;2.27;1.93;;;17.40;56.20;;;;;;942025;149;27885;-74
2022/08/30 00:55:58;;;;;;;2.65;2.02;;;17.40;56.20;;;;;;942601;149;27816;-74
2022/08/30 00:58:25;;;;;;;2.53;2.03;;;17.30;56.20;;;;;;943227;149;27396;-74
2022/08/30 01:00:52;;;;;;;2.08;1.70;;;17.30;56.20;;;;;;942642;149;27446;-74
2022/08/30 01:03:18;;;;;;;2.67;1.77;;;17.30;56.30;;;;;;943054;149;27365;-74
2022/08/30 01:05:44;;;;;;;2.73;2.33;;;17.30;56.30;;;;;;943638;149;27334;-74
2022/08/30 01:08:11;;;;;;;2.40;2.02;;;17.30;56.40;;;;;;943703;149;27342;-74
2022/08/30 01:10:37;;;;;;;2.05;1.95;;;17.30;56.50;;;;;;943080;149;27431;-74
2022/08/30 01:13:04;;;;;;;2.07;1.90;;;17.20;56.50;;;;;;943845;149;27352;-74
2022/08/30 01:15:31;;;;;;;2.70;1.87;;;17.20;56.70;;;;;;943749;149;27337;-74
2022/08/30 01:17:57;;;;;;;2.30;1.77;;;17.20;56.70;;;;;;943428;149;27929;-74
2022/08/30 01:20:24;;;;;;;2.87;1.80;;;17.10;56.90;;;;;;943463;149;27403;-74
2022/08/30 01:22:50;;;;;;;4.03;2.35;;;17.10;56.90;;;;;;943506;149;27840;-74
2022/08/30 01:25:23;;;;;;;2.43;2.20;;;17.10;57.00;;;;;;943347;149;27337;-74
2022/08/30 01:27:52;;;;;;;2.03;1.80;;;17.00;57.00;;;;;;942795;149;27361;-74
2022/08/30 01:30:19;;;;;;;2.13;1.93;;;17.00;56.90;;;;;;943354;149;27341;-74
2022/08/30 01:32:46;;;;;;;2.40;1.90;;;16.90;56.50;;;;;;943672;149;27318;-74
2022/08/30 01:35:12;;;;;;;2.53;2.33;;;16.90;57.00;;;;;;944080;149;27336;-74
2022/08/30 01:37:39;;;;;;;5.73;2.37;;;16.80;57.00;;;;;;943851;149;27373;-74
2022/08/30 01:40:05;;;;;;;2.80;2.03;;;16.80;57.10;;;;;;943228;149;27446;-74
2022/08/30 01:42:32;;;;;;;3.83;1.90;;;16.70;57.10;;;;;;942981;149;27347;-74
2022/08/30 01:44:58;;;;;;;3.50;2.37;;;16.60;57.20;;;;;;941942;149;27407;-74
2022/08/30 01:47:26;;;;;;;2.10;1.90;;;16.60;57.30;;;;;;943460;149;27348;-74
2022/08/30 01:49:51;;;;;;;2.43;1.80;;;16.50;57.40;;;;;;943018;149;27338;-74
2022/08/30 01:52:18;;;;;;;2.50;2.10;;;16.50;57.60;;;;;;943209;149;27457;-74
2022/08/30 01:54:45;;;;;;;3.57;2.00;;;16.40;57.70;;;;;;943776;149;27700;-74
2022/08/30 01:57:11;;;;;;;2.40;1.90;;;16.40;57.80;;;;;;944015;149;27332;-74
2022/08/30 01:59:38;;;;;;;2.30;1.93;;;16.30;57.90;;;;;;942703;149;27356;-74
2022/08/30 02:02:04;;;;;;;2.90;2.27;;;16.30;58.00;;;;;;943560;149;27521;-74
2022/08/30 02:04:31;;;;;;;1.80;1.70;;;16.20;58.10;;;;;;943082;149;27450;-74
2022/08/30 02:06:58;;;;;;;2.47;2.10;;;16.20;58.20;;;;;;942831;149;27821;-74
2022/08/30 02:09:24;;;;;;;3.33;2.10;;;16.10;58.30;;;;;;943087;149;27435;-73
2022/08/30 02:11:51;;;;;;;3.80;2.03;;;16.10;58.40;;;;;;943951;149;27329;-74
2022/08/30 02:14:17;;;;;;;2.03;1.83;;;16.00;58.50;;;;;;920516;150;27452;-74
2022/08/30 02:16:45;;;;;;;3.07;1.93;;;16.00;58.70;;;;;;940944;149;27373;-74
2022/08/30 02:19:11;;;;;;;2.30;2.10;;;16.00;58.80;;;;;;942441;149;27370;-74
2022/08/30 02:21:37;;;;;;;5.37;2.00;;;15.90;59.20;;;;;;942385;149;27337;-74
2022/08/30 02:24:04;;;;;;;2.20;2.00;;;15.90;58.90;;;;;;941565;149;27332;-73
2022/08/30 02:26:30;;;;;;;2.20;2.00;;;15.80;59.00;;;;;;942447;149;27310;-73
2022/08/30 02:28:57;;;;;;;3.07;2.40;;;15.80;59.10;;;;;;942250;149;27370;-74
2022/08/30 02:31:23;;;;;;;1.87;1.57;;;15.80;59.20;;;;;;942164;149;27446;-73
2022/08/30 02:33:50;;;;;;;2.20;2.00;;;15.70;59.20;;;;;;941788;149;27358;-73
2022/08/30 02:36:17;;;;;;;2.40;2.20;;;15.70;59.40;;;;;;941825;149;27955;-74
2022/08/30 02:38:44;;;;;;;3.60;2.00;;;15.70;59.50;;;;;;942339;149;27292;-74
2022/08/30 02:41:10;;;;;;;2.33;1.77;;;15.60;59.60;;;;;;943170;149;27425;-73
2022/08/30 02:43:36;;;;;;;2.60;2.23;;;15.60;59.80;;;;;;941799;149;27374;-74
2022/08/30 02:46:03;;;;;;;2.30;2.10;;;15.60;59.80;;;;;;942013;149;27387;-73
2022/08/30 02:48:30;;;;;;;4.17;1.97;;;15.60;59.80;;;;;;941917;149;27462;-74
2022/08/30 02:50:56;;;;;;;1.97;1.77;;;15.60;59.90;;;;;;941528;149;27334;-73
2022/08/30 02:53:23;;;;;;;4.60;2.10;;;15.50;60.00;;;;;;941277;149;27381;-74
2022/08/30 02:55:49;;;;;;;2.07;1.87;;;15.50;60.30;;;;;;941471;149;27748;-74
2022/08/30 02:58:16;;;;;;;2.77;1.97;;;15.50;60.20;;;;;;942124;149;28716;-74
2022/08/30 03:00:43;;;;;;;2.40;2.20;;;15.50;60.40;;;;;;941466;149;27431;-74
2022/08/30 03:03:09;;;;;;;3.20;2.17;;;15.40;60.40;;;;;;942080;149;27313;-74
2022/08/30 03:05:36;;;;;;;2.60;2.17;;;15.40;60.50;;;;;;941549;149;27365;-74
2022/08/30 03:08:02;;;;;;;3.27;2.57;;;15.40;60.60;;;;;;941754;149;28030;-74
2022/08/30 03:10:29;;;;;;;2.87;2.63;;;15.40;60.60;;;;;;941463;149;27367;-74
2022/08/30 03:12:55;;;;;;;2.53;2.10;;;15.40;60.90;;;;;;941665;149;27340;-74
2022/08/30 03:15:24;;;;;;;2.60;2.10;;;15.40;61.00;;;;;;942442;149;27816;-74
2022/08/30 03:17:49;;;;;;;4.77;2.60;;;15.40;61.10;;;;;;941937;149;27376;-74
2022/08/30 03:20:15;;;;;;;2.90;2.60;;;15.50;61.50;;;;;;931169;151;27393;-74
2022/08/30 03:22:42;;;;;;;2.50;2.30;;;15.50;61.60;;;;;;930138;154;27352;-74
2022/08/30 03:25:08;;;;;;;2.63;2.43;;;15.50;61.70;;;;;;946517;149;27283;-74
2022/08/30 03:27:35;;;;;;;2.60;2.23;;;15.50;61.90;;;;;;945161;151;27265;-74
2022/08/30 03:30:02;;;;;;;2.23;2.03;;;15.50;61.90;;;;;;945646;151;27450;-74
2022/08/30 03:32:28;;;;;;;2.87;2.57;;;15.50;61.90;;;;;;944389;151;27325;-74
2022/08/30 03:34:55;;;;;;;2.77;2.50;;;15.50;62.00;;;;;;944416;151;27317;-74
2022/08/30 03:37:21;;;;;;;4.43;2.60;;;15.50;61.90;;;;;;929556;154;27356;-74
2022/08/30 03:39:48;;;;;;;2.57;2.37;;;15.40;61.80;;;;;;947330;151;27692;-74
2022/08/30 03:42:15;;;;;;;2.33;2.13;;;15.40;61.80;;;;;;946745;151;27858;-74
2022/08/30 03:44:41;;;;;;;3.47;2.10;;;15.40;61.90;;;;;;926069;152;27358;-74
2022/08/30 03:47:08;;;;;;;2.47;2.17;;;15.30;62.00;;;;;;919489;151;27342;-74
2022/08/30 03:49:34;;;;;;;2.77;2.50;;;15.30;62.00;;;;;;930092;154;27442;-74
2022/08/30 03:52:01;;;;;;;4.10;2.17;;;15.30;62.20;;;;;;930169;154;27417;-74
2022/08/30 03:54:27;;;;;;;4.23;2.10;;;15.20;62.30;;;;;;946864;151;27443;-74
2022/08/30 03:56:55;;;;;;;2.87;2.20;;;15.20;62.50;;;;;;937742;153;27494;-74
2022/08/30 03:59:21;;;;;;;5.07;2.33;;;15.20;62.70;;;;;;943701;151;27855;-74
2022/08/30 04:01:47;;;;;;;2.83;2.40;;;15.20;62.00;;;;;;944118;151;27285;-74
2022/08/30 04:04:14;;;;;;;3.00;2.33;;;15.10;63.00;;;;;;944939;151;27337;-74
2022/08/30 04:06:40;;;;;;;3.23;2.20;;;15.10;63.10;;;;;;944985;151;27332;-74
2022/08/30 04:09:07;;;;;;;3.37;2.17;;;15.10;63.10;;;;;;945038;151;27368;-74
2022/08/30 04:11:34;;;;;;;2.07;1.93;;;15.10;63.20;;;;;;944098;151;27449;-74
2022/08/30 04:14:00;;;;;;;3.40;2.20;;;15.10;63.20;;;;;;944754;151;27761;-74
2022/08/30 04:16:27;;;;;;;2.77;2.17;;;15.10;63.20;;;;;;944369;151;27351;-74
2022/08/30 04:18:53;;;;;;;3.53;2.27;;;15.10;63.40;;;;;;944245;151;27430;-74
2022/08/30 04:21:20;;;;;;;2.13;1.93;;;15.10;63.30;;;;;;943679;151;27889;-74
2022/08/30 04:23:46;;;;;;;3.17;2.10;;;15.10;63.40;;;;;;944758;151;27376;-74
2022/08/30 04:26:13;;;;;;;2.17;1.97;;;15.10;63.40;;;;;;944559;151;27336;-74
2022/08/30 04:28:40;;;;;;;3.27;2.50;;;15.10;63.40;;;;;;944894;151;27422;-74
2022/08/30 04:31:09;;;;;;;5.07;2.67;;;15.10;63.50;;;;;;944307;151;27274;-74
2022/08/30 04:33:36;;;;;;;3.27;1.97;;;15.10;63.50;;;;;;944558;151;27368;-74
2022/08/30 04:36:03;;;;;;;4.47;2.00;;;15.00;63.50;;;;;;944447;151;27363;-74
2022/08/30 04:38:29;;;;;;;4.23;2.20;;;15.00;63.40;;;;;;944527;151;27388;-74
2022/08/30 04:40:56;;;;;;;2.83;2.30;;;15.00;63.50;;;;;;944755;151;27379;-74
2022/08/30 04:43:24;;;;;;;3.70;2.40;;;14.90;63.50;;;;;;944393;151;27385;-74
2022/08/30 04:45:51;;;;;;;2.93;2.07;;;14.90;63.60;;;;;;944613;151;27301;-74
2022/08/30 04:48:16;;;;;;;3.60;2.40;;;14.90;63.80;;;;;;945070;151;27441;-74
2022/08/30 04:50:42;;;;;;;2.63;2.43;;;14.80;63.80;;;;;;944588;151;28412;-74
2022/08/30 04:53:08;;;;;;;3.30;2.27;;;14.80;63.90;;;;;;943928;151;27302;-74
2022/08/30 04:55:36;;;;;;;2.83;2.50;;;14.80;64.10;;;;;;944885;151;27289;-74
2022/08/30 04:58:02;;;;;;;2.50;2.00;;;14.80;64.30;;;;;;945015;151;27353;-74
2022/08/30 05:00:28;;;;;;;2.60;2.40;;;14.80;64.40;;;;;;944423;151;27470;-74
2022/08/30 05:02:55;;;;;;;3.33;2.23;;;14.80;64.60;;;;;;945457;151;27425;-74
2022/08/30 05:05:40;;;;;;;2.60;2.40;;;14.80;64.90;;;;;;944864;151;27301;-74
2022/08/30 05:08:06;;;;;;;5.47;2.53;;;14.90;65.30;;;;;;944485;151;27348;-74
2022/08/30 05:10:33;;;;;;;2.70;2.40;;;15.00;65.40;;;;;;944480;151;27471;-74
2022/08/30 05:12:59;;;;;;;3.10;2.30;;;15.20;65.90;;;;;;944630;151;27367;-74
2022/08/30 05:15:26;;;;;;;3.03;2.10;;;15.40;66.20;;;;;;944447;151;27385;-74
2022/08/30 05:17:52;;;;;;;4.20;2.30;;;15.70;66.50;;;;;;944090;151;27343;-74
2022/08/30 05:20:19;;;;;;;3.50;2.20;;;16.00;66.50;;;;;;944733;151;27475;-74
2022/08/30 05:22:48;;;;;;;2.12;1.95;;;16.50;66.60;;;;;;944105;149;27977;-74
2022/08/30 05:25:12;;;;;;;2.42;2.12;;;16.90;66.40;;;;;;944347;151;27360;-74
2022/08/30 05:27:39;;;;;;;5.42;2.00;;;17.30;66.10;;;;;;944036;151;27345;-74
2022/08/30 05:30:05;;;;;;;2.90;2.17;;;17.90;65.70;;;;;;943809;151;28087;-74
2022/08/30 05:32:32;;;;;;;2.08;1.87;;;18.40;65.10;;;;;;944870;149;27442;-74
2022/08/30 05:34:59;;;;;;;3.72;2.30;;;18.90;64.50;;;;;;944723;151;27321;-74
2022/08/30 05:37:25;;;;;;;8.53;2.70;;;19.50;63.80;;;;;;944639;149;27344;-74
2022/08/30 05:39:52;;;;;;;2.47;1.90;;;20.00;63.00;;;;;;944213;149;27368;-74
2022/08/30 05:42:18;;;;;;;2.98;1.95;;;20.70;62.30;;;;;;944232;151;27511;-75
2022/08/30 05:44:46;;;;;;;3.87;2.33;;;21.20;61.20;;;;;;944146;151;27604;-74
2022/08/30 05:47:12;;;;;;;2.20;1.98;;;21.80;60.10;;;;;;945091;151;27337;-74
2022/08/30 05:49:38;;;;;;;2.05;1.85;;;22.40;59.40;;;;;;944737;151;27808;-74
2022/08/30 05:52:05;;;;;;;2.65;2.02;;;22.90;58.70;;;;;;945048;151;27413;-75
2022/08/30 05:54:31;;;;;;;2.10;1.80;;;23.50;58.10;;;;;;945250;151;27353;-75
2022/08/30 05:56:58;;;;;;;1.82;1.52;;;24.00;56.90;;;;;;944397;149;27357;-75
2022/08/30 05:59:24;;;;;;;4.92;2.15;;;24.60;56.60;;;;;;943926;149;27283;-75
2022/08/30 06:01:51;;;;;;;1.82;1.72;;;25.20;55.90;;;;;;944568;151;27271;-75
2022/08/30 06:04:18;;;;;;;2.42;2.00;;;25.80;55.30;;;;;;943616;149;27740;-75
2022/08/30 06:06:44;;;;;;;4.87;2.77;;;26.40;54.60;;;;;;943917;149;27365;-75
2022/08/30 06:09:11;;;;;;;2.40;2.02;;;27.00;54.00;;;;;;944078;151;27789;-75
2022/08/30 06:11:37;;;;;;;2.95;2.20;;;27.60;53.10;;;;;;944160;151;27718;-75
2022/08/30 06:14:04;;;;;;;2.60;2.10;;;28.20;52.40;;;;;;944645;149;27313;-75
2022/08/30 06:16:31;;;;;;;2.60;2.12;;;28.70;51.60;;;;;;944406;151;27322;-75
2022/08/30 06:18:57;;;;;;;4.15;2.55;;;29.30;51.00;;;;;;944931;149;27371;-75
2022/08/30 06:21:24;;;;;;;2.20;2.00;;;29.80;50.20;;;;;;945113;151;27467;-75
2022/08/30 06:23:50;;;;;;;2.37;1.90;;;30.30;49.50;;;;;;944186;151;27813;-75
2022/08/30 06:26:17;;;;;;;2.87;2.37;;;30.80;48.80;;;;;;944478;151;27943;-75
2022/08/30 06:28:44;;;;;;;3.00;2.12;;;31.20;48.00;;;;;;944970;149;27397;-75
2022/08/30 06:31:10;;;;;;;3.15;2.30;;;31.60;47.10;;;;;;944482;151;27323;-75
2022/08/30 06:33:37;;;;;;;2.50;2.05;;;32.00;46.50;;;;;;944074;151;27439;-76
2022/08/30 06:36:06;;;;;;;2.33;1.80;;;32.30;45.80;;;;;;944954;151;27423;-75
2022/08/30 06:38:33;;;;;;;2.80;2.10;;;32.70;45.40;;;;;;943903;149;27390;-75
2022/08/30 06:40:59;;;;;;;2.20;1.90;;;33.10;45.10;;;;;;941036;150;27315;-75
2022/08/30 06:43:26;;;;;;;2.10;1.90;;;33.40;44.60;;;;;;944846;151;27275;-76
2022/08/30 06:45:54;;;;;;;2.50;2.30;;;33.80;44.00;;;;;;944044;151;27364;-76
2022/08/30 06:48:19;;;;;;;2.98;2.33;;;34.20;43.50;;;;;;943852;149;27487;-76
2022/08/30 06:50:46;;;;;;;3.77;2.02;;;34.50;42.90;;;;;;944923;149;27295;-76
2022/08/30 06:53:12;;;;;;;3.15;2.30;;;34.80;42.30;;;;;;943476;149;27255;-76
2022/08/30 06:55:39;;;;;;;5.05;2.20;;;35.10;41.80;;;;;;943906;151;27317;-76
2022/08/30 06:58:06;;;;;;;4.90;2.00;;;35.40;41.40;;;;;;943742;149;27329;-76
2022/08/30 07:00:32;;;;;;;4.70;2.17;;;35.70;41.20;;;;;;944375;149;27364;-76
2022/08/30 07:03:01;;;;;;;2.72;1.70;;;36.00;40.70;;;;;;944849;149;26256;-76
2022/08/30 07:05:25;;;;;;;7.60;2.33;;;36.40;40.20;;;;;;944517;151;27370;-76
2022/08/30 07:07:54;;;;;;;3.90;1.92;;;36.80;39.70;;;;;;943692;149;26303;-76
2022/08/30 07:10:21;;;;;;;1.95;1.85;;;37.10;39.20;;;;;;944372;151;27493;-76
2022/08/30 07:12:48;;;;;;;2.95;2.00;;;37.30;38.50;;;;;;944977;151;26376;-76
2022/08/30 07:15:14;;;;;;;4.45;1.70;;;37.60;38.00;;;;;;943773;149;26326;-76
2022/08/30 07:20:25;;;;;;;4.80;2.17;;;38.00;37.20;;;;;;944457;151;28099;-76
2022/08/30 07:22:52;;;;;;;2.02;1.82;;;38.20;37.10;;;;;;943703;149;26414;-76
2022/08/30 07:25:18;;;;;;;3.60;1.87;;;38.40;36.70;;;;;;944667;149;26291;-76
2022/08/30 07:27:45;;;;;;;4.35;2.02;;;38.70;36.30;;;;;;943481;149;26248;-76
2022/08/30 07:30:12;;;;;;;2.55;1.95;;;39.00;35.90;;;;;;942571;149;26279;-76
2022/08/30 07:32:38;;;;;;;2.45;2.10;;;39.30;35.60;;;;;;943724;149;26326;-76
2022/08/30 07:35:05;;;;;;;2.67;1.82;;;39.50;35.00;;;;;;943894;149;26866;-76
2022/08/30 07:37:31;;;;;;;5.40;2.02;;;39.70;34.70;;;;;;943978;149;26285;-77
2022/08/30 07:39:58;;;;;;;3.35;1.87;;;40.00;34.10;;;;;;943274;149;26322;-77
2022/08/30 07:42:25;;;;;;;3.58;2.20;;;40.20;33.60;;;;;;943037;149;26240;-76
2022/08/30 07:44:51;;;;;;;1.90;1.80;;;40.30;33.40;;;;;;942677;149;26223;-77
2022/08/30 07:47:18;;;;;;;3.40;1.92;;;40.60;33.00;;;;;;942963;149;27303;-77
2022/08/30 07:49:44;;;;;;;4.20;2.27;;;40.80;32.80;;;;;;943845;149;26342;-76
2022/08/30 07:52:11;;;;;;;8.13;1.80;;;41.00;32.50;;;;;;943483;149;28703;-77
2022/08/30 07:54:37;;;;;;;5.50;2.05;;;41.10;32.20;;;;;;943546;149;26236;-77
2022/08/30 07:57:04;;;;;;;3.17;1.92;;;41.20;31.70;;;;;;943683;149;26339;-77
2022/08/30 07:59:31;;;;;;;2.95;1.90;;;41.40;31.30;;;;;;942277;149;26248;-77
2022/08/30 08:01:57;;;;;;;2.98;1.90;;;41.40;30.90;;;;;;943296;149;26269;-77
2022/08/30 08:04:24;;;;;;;2.65;2.35;;;41.40;30.60;;;;;;943621;149;26264;-77
2022/08/30 08:06:50;;;;;;;3.58;2.25;;;41.50;30.50;;;;;;942499;149;26330;-77
2022/08/30 08:09:18;;;;;;;3.37;2.10;;;41.60;30.30;;;;;;941939;149;26198;-77
2022/08/30 08:11:44;;;;;;;4.62;2.10;;;41.70;30.20;;;;;;940522;149;26281;-77
2022/08/30 08:14:10;;;;;;;2.40;1.98;;;41.80;30.00;;;;;;941607;149;28048;-77
2022/08/30 08:16:37;;;;;;;3.02;1.77;;;41.90;29.70;;;;;;943501;149;26284;-77
2022/08/30 08:19:07;;;;;;;4.58;1.95;;;42.10;29.60;;;;;;942445;149;28283;-77
2022/08/30 08:21:30;;;;;;;4.17;1.70;;;42.20;29.50;;;;;;942172;149;26296;-77
2022/08/30 08:23:57;;;;;;;2.52;2.20;;;42.40;29.20;;;;;;943685;149;26339;-77
2022/08/30 08:26:23;;;;;;;2.00;1.72;;;42.60;29.10;;;;;;943267;149;26233;-77
2022/08/30 08:28:50;;;;;;;2.40;1.90;;;42.80;28.90;;;;;;944566;149;26281;-77
2022/08/30 08:31:16;;;;;;;3.65;2.00;;;43.10;28.80;;;;;;943672;149;26325;-77
2022/08/30 08:33:43;;;;;;;3.00;1.95;;;43.20;28.50;;;;;;943185;149;27608;-77
2022/08/30 08:36:10;;;;;;;2.40;2.08;;;43.50;28.40;;;;;;944010;149;26232;-77
2022/08/30 08:38:36;;;;;;;3.47;1.70;;;43.70;28.00;;;;;;944653;149;26240;-77
2022/08/30 08:41:03;;;;;;;2.35;1.70;;;43.90;27.90;;;;;;943419;149;26316;-77
2022/08/30 08:43:29;;;;;;;2.70;1.98;;;44.10;27.80;;;;;;943290;149;26280;-77
2022/08/30 08:46:14;;;;;;;2.40;1.98;;;44.30;27.60;;;;;;942627;149;26309;-77
2022/08/30 08:48:48;;;;;;;2.30;2.00;;;44.50;27.40;;;;;;942583;149;26327;-77
2022/08/30 08:54:04;;;;;;;2.30;1.90;;;44.80;26.90;;;;;;943850;149;26364;-77
2022/08/30 08:56:30;;;;;;;2.50;1.98;;;44.90;26.80;;;;;;931203;149;26335;-77
2022/08/30 08:58:57;;;;;;;2.30;2.10;;;44.90;26.50;;;;;;943202;150;26280;-77
2022/08/30 09:01:24;;;;;;;5.55;2.37;;;44.80;26.40;;;;;;943107;149;26264;-77
2022/08/30 09:03:50;;;;;;;6.03;2.30;;;44.70;26.10;;;;;;943652;149;26277;-77
2022/08/30 09:06:27;;;;;;;4.05;2.05;;;44.50;26.00;;;;;;943980;149;26342;-77
2022/08/30 09:08:52;;;;;;;2.02;1.87;;;44.20;25.90;;;;;;942422;149;26256;-77
2022/08/30 09:11:21;;;;;;;2.55;1.45;;;43.90;26.20;;;;;;943693;149;26272;-77
2022/08/30 09:13:48;;;;;;;1.95;1.65;;;43.80;26.40;;;;;;943303;149;26232;-77
2022/08/30 09:16:33;;;;;;;2.95;1.90;;;43.70;26.40;;;;;;943782;149;26257;-77
2022/08/30 09:18:59;;;;;;;3.52;1.85;;;43.60;26.40;;;;;;943089;149;26268;-77
2022/08/30 09:21:26;;;;;;;2.45;1.72;;;43.40;26.20;;;;;;943370;149;26260;-77
2022/08/30 09:23:55;;;;;;;1.92;1.72;;;43.30;26.20;;;;;;943103;149;26370;-77
2022/08/30 09:26:28;;;;;;;3.75;2.20;;;43.20;26.30;;;;;;943378;149;26350;-77
2022/08/30 09:28:54;;;;;;;4.30;1.87;;;43.20;26.40;;;;;;943806;149;26268;-77
2022/08/30 09:31:33;;;;;;;3.52;1.80;;;43.20;26.40;;;;;;927264;150;26290;-77
2022/08/30 09:34:02;;;;;;;3.05;2.08;;;43.20;26.30;;;;;;940884;149;26780;-77
2022/08/30 09:36:26;;;;;;;3.50;2.30;;;43.20;26.30;;;;;;941192;149;26245;-77
2022/08/30 09:38:58;;;;;;;4.78;2.67;;;43.10;26.10;;;;;;941543;149;26319;-77
2022/08/30 09:41:34;;;;;;;3.37;1.72;;;43.10;26.00;;;;;;940194;149;26323;-77
2022/08/30 09:44:06;;;;;;;3.45;1.98;;;43.10;26.20;;;;;;940272;149;26366;-77
2022/08/30 09:46:33;;;;;;;1.85;1.75;;;43.00;26.10;;;;;;940436;149;26265;-77
2022/08/30 09:48:59;;;;;;;2.35;1.52;;;42.90;25.90;;;;;;941101;150;26241;-77
2022/08/30 09:51:35;;;;;;;2.10;1.75;;;42.80;25.80;;;;;;941843;149;26346;-78
2022/08/30 09:54:10;;;;;;;2.67;2.00;;;42.60;25.80;;;;;;940431;149;26264;-77
2022/08/30 09:56:55;;;;;;;1.98;1.65;;;42.40;25.90;;;;;;939583;150;26390;-78
2022/08/30 09:59:22;;;;;;;4.30;1.82;;;42.10;26.00;;;;;;941253;149;26292;-77
2022/08/30 10:01:48;;;;;;;3.00;1.87;;;41.90;26.10;;;;;;940415;149;26217;-77
2022/08/30 10:04:15;;;;;;;4.62;2.00;;;41.60;25.90;;;;;;941534;149;26257;-77
2022/08/30 10:06:41;;;;;;;3.17;2.00;;;41.30;25.90;;;;;;931881;149;26338;-77
2022/08/30 10:09:17;;;;;;;2.85;1.90;;;40.90;26.00;;;;;;938712;149;26265;-77
2022/08/30 10:11:53;;;;;;;3.08;2.10;;;40.50;26.10;;;;;;940618;149;26355;-77
2022/08/30 10:14:44;;;;;;;2.20;2.00;;;40.10;26.40;;;;;;939884;149;26198;-77
2022/08/30 10:17:19;;;;;;;1.90;1.80;;;39.70;26.30;;;;;;941817;149;26326;-77
2022/08/30 10:19:51;;;;;;;5.62;1.92;;;39.40;26.50;;;;;;940605;149;27296;-77
2022/08/30 10:22:30;;;;;;;3.17;1.92;;;38.90;26.50;;;;;;940085;149;27809;-77
2022/08/30 10:24:56;;;;;;;2.10;1.90;;;38.60;26.80;;;;;;941613;149;27370;-77
2022/08/30 10:27:23;;;;;;;3.75;1.75;;;38.20;26.90;;;;;;941063;149;27330;-77
2022/08/30 10:29:49;;;;;;;3.45;1.87;;;37.80;26.90;;;;;;940335;149;27290;-77
2022/08/30 10:32:41;;;;;;;3.08;1.80;;;37.50;27.10;;;;;;941289;149;27318;-77
2022/08/30 10:35:08;;;;;;;5.30;2.08;;;37.20;27.30;;;;;;940592;149;27339;-78
2022/08/30 10:37:34;;;;;;;2.47;2.00;;;36.90;27.60;;;;;;942109;149;27379;-78
2022/08/30 10:41:11;;;;;;;3.47;2.00;;;36.70;27.70;;;;;;940429;149;27381;-78
2022/08/30 10:42:33;;;;;;;5.90;2.17;;;36.50;27.90;;;;;;936651;149;27404;-78
2022/08/30 10:45:05;;;;;;;2.47;1.90;;;36.30;28.50;;;;;;941408;149;27315;-78
2022/08/30 10:47:53;;;;;;;2.12;1.92;;;36.20;28.20;;;;;;941387;149;27374;-78
2022/08/30 10:50:23;;;;;;;3.52;1.95;;;36.00;28.20;;;;;;941025;149;27431;-77
2022/08/30 10:52:57;;;;;;;4.12;2.50;;;35.80;28.30;;;;;;942087;149;27339;-78
2022/08/30 10:55:27;;;;;;;2.15;1.90;;;35.60;28.40;;;;;;942391;149;28088;-78
2022/08/30 10:57:53;;;;;;;2.50;2.30;;;35.50;28.60;;;;;;941565;149;27865;-78
2022/08/30 11:00:31;;;;;;;2.05;1.87;;;35.30;28.60;;;;;;941985;149;27361;-78
2022/08/30 11:03:03;;;;;;;3.87;1.90;;;35.10;28.70;;;;;;941578;149;27847;-78
2022/08/30 11:06:04;;;;;;;3.10;2.02;;;35.00;28.80;;;;;;942460;149;27365;-78
2022/08/30 11:08:45;;;;;;;2.30;2.10;;;34.80;28.90;;;;;;940594;149;27295;-78
2022/08/30 11:11:15;;;;;;;2.75;2.00;;;34.60;29.00;;;;;;940716;149;28092;-78
2022/08/30 11:13:41;;;;;;;4.95;2.08;;;34.50;29.10;;;;;;941424;149;27359;-78
2022/08/30 11:16:14;;;;;;;3.30;1.85;;;34.30;29.30;;;;;;940380;149;27420;-78
2022/08/30 11:18:46;;;;;;;3.27;2.15;;;34.20;29.30;;;;;;941094;149;27343;-78
2022/08/30 11:21:16;;;;;;;3.12;1.92;;;34.10;29.50;;;;;;940421;149;27424;-78
2022/08/30 11:23:42;;;;;;;2.05;1.55;;;34.00;29.50;;;;;;938615;150;27414;-77
2022/08/30 11:26:09;;;;;;;1.90;1.80;;;33.90;29.70;;;;;;926072;154;27362;-78
2022/08/30 11:28:36;;;;;;;3.08;2.10;;;33.90;29.70;;;;;;925377;154;27417;-78
2022/08/30 11:31:05;;;;;;;3.10;1.90;;;33.80;29.70;;;;;;937406;153;27333;-78
2022/08/30 11:33:43;;;;;;;2.45;2.17;;;33.70;29.80;;;;;;936453;153;27827;-78
2022/08/30 11:36:10;;;;;;;2.90;2.37;;;33.70;30.30;;;;;;937324;152;27345;-78
2022/08/30 11:38:37;;;;;;;2.80;1.95;;;33.60;29.90;;;;;;936568;153;28417;-78
2022/08/30 11:41:12;;;;;;;2.30;2.10;;;33.50;29.90;;;;;;945732;151;27459;-78
2022/08/30 11:43:44;;;;;;;2.35;2.10;;;33.40;29.90;;;;;;944039;151;27490;-78
2022/08/30 11:46:26;;;;;;;4.10;2.33;;;33.40;30.10;;;;;;937460;151;27463;-78
2022/08/30 11:49:13;;;;;;;2.40;2.20;;;33.30;30.20;;;;;;926752;154;27457;-78
2022/08/30 11:51:55;;;;;;;2.12;1.92;;;33.30;30.30;;;;;;927886;152;27368;-77
2022/08/30 11:54:52;;;;;;;2.15;1.98;;;33.30;30.10;;;;;;926531;154;27365;-77
2022/08/30 11:57:43;;;;;;;4.70;1.85;;;33.20;30.10;;;;;;926790;154;27363;-77
2022/08/30 12:00:09;;;;;;;6.37;2.10;;;33.20;30.30;;;;;;928013;154;27437;-77
2022/08/30 12:02:39;;;;;;;2.33;1.77;;;33.10;30.30;;;;;;928079;153;27476;-77
2022/08/30 12:05:05;;;;;;;1.95;1.75;;;33.10;31.10;;;;;;929644;153;27444;-78
2022/08/30 12:07:59;;;;;;;5.45;1.95;;;33.00;30.50;;;;;;929439;152;27272;-78
2022/08/30 12:10:38;;;;;;;2.22;1.80;;;33.00;30.60;;;;;;929863;154;27427;-78
2022/08/30 12:13:04;;;;;;;1.98;1.87;;;32.90;30.70;;;;;;929589;154;27350;-78
2022/08/30 12:15:53;;;;;;;2.10;1.90;;;32.90;30.70;;;;;;933762;151;27861;-78
2022/08/30 12:18:28;;;;;;;2.00;1.80;;;32.90;30.70;;;;;;929224;154;27836;-78
2022/08/30 12:20:57;;;;;;;2.47;2.27;;;32.90;30.70;;;;;;929847;154;27394;-78
2022/08/30 12:23:39;;;;;;;2.17;2.00;;;32.90;30.60;;;;;;929394;153;27333;-78
2022/08/30 12:26:11;;;;;;;1.82;1.72;;;32.90;30.60;;;;;;928967;151;27386;-78
2022/08/30 12:28:37;;;;;;;2.10;1.98;;;32.90;30.50;;;;;;929020;154;27734;-78
2022/08/30 12:31:08;;;;;;;3.05;1.87;;;32.80;30.40;;;;;;946714;151;27297;-78
2022/08/30 12:33:34;;;;;;;5.10;1.75;;;32.80;30.20;;;;;;944298;151;27416;-77
2022/08/30 12:36:00;;;;;;;1.82;1.70;;;32.80;30.30;;;;;;945705;149;27328;-77
2022/08/30 12:38:28;;;;;;;3.05;1.80;;;32.80;29.70;;;;;;933221;151;27362;-77
2022/08/30 12:40:54;;;;;;;2.20;1.95;;;32.80;30.10;;;;;;942514;151;27825;-77
2022/08/30 12:43:32;;;;;;;2.10;1.90;;;32.80;30.00;;;;;;929517;154;27420;-77
2022/08/30 12:45:59;;;;;;;1.90;1.80;;;32.80;30.00;;;;;;930349;154;27446;-77
2022/08/30 12:48:26;;;;;;;2.70;1.80;;;32.90;30.00;;;;;;928014;153;27426;-77
2022/08/30 12:50:52;;;;;;;1.87;1.77;;;32.90;30.00;;;;;;946945;151;27428;-77
2022/08/30 12:53:21;;;;;;;3.45;1.50;;;32.90;29.80;;;;;;927861;152;27449;-77
2022/08/30 12:56:06;;;;;;;1.70;1.60;;;33.00;29.80;;;;;;946099;151;27301;-77
2022/08/30 12:58:38;;;;;;;1.82;1.72;;;32.90;30.00;;;;;;937599;152;27329;-77
2022/08/30 13:01:10;;;;;;;2.27;1.72;;;32.90;29.60;;;;;;937326;153;27755;-77